Terminal Aerodrome Forecast
Issued by NWS Jackson, MS

Home | Current Version | Previous Version | Text Only | Print | Product List | Glossary On
Versions: 1 2 3 4 5 6 7 8 9 10 11 12 13 14 15
693
FTUS44 KJAN 220318 AAA
TAFMEI
TAF AMD
KMEI 220318Z 2203/2224 00000KT 1SM BR BKN005
     FM220900 00000KT 1/2SM FG OVC002
     FM221500 35005KT P6SM OVC007
     FM221800 36007KT P6SM OVC015
     FM222100 01006KT P6SM BKN050=

USA.gov is the U.S. government's official web portal to all federal, state and local government web resources and services.